Time;durP1;ratioP1;P1;durP2;ratioP2;P2;SDS_P1;SDS_P2;PMS_P1;PMS_P2;Temp;Humidity;BMP_temperature;BMP_pressure;BME280_temperature;BME280_humidity;BME280_pressure;Samples;Min_cycle;Max_cycle;Signal;HPM_P1;HPM_P2
2023/12/10 00:00:55;;;;;;;13.13;11.90;;;;;;;21.82;29.68;94995.09;6137607;28;109278;-57
2023/12/10 00:03:59;;;;;;;11.33;10.30;;;;;;;21.80;29.98;94995.38;6154613;28;110091;-58
2023/12/10 00:07:02;;;;;;;11.50;10.50;;;;;;;21.80;29.94;94974.06;6159647;28;109351;-58
2023/12/10 00:10:08;;;;;;;11.83;10.80;;;;;;;21.79;29.41;94963.72;6147088;28;109045;-58
2023/12/10 00:13:11;;;;;;;11.07;10.07;;;;;;;21.79;29.62;94961.84;6160138;28;109220;-57
2023/12/10 00:16:14;;;;;;;11.70;10.60;;;;;;;21.81;29.41;94959.66;6158431;28;109267;-57
2023/12/10 00:19:18;;;;;;;12.80;11.60;;;;;;;21.79;29.63;94961.06;6156010;28;110416;-57
2023/12/10 00:22:21;;;;;;;10.40;9.50;;;;;;;21.80;29.49;94957.31;6146308;28;109157;-57
2023/12/10 00:25:26;;;;;;;11.70;10.70;;;;;;;21.80;29.47;94967.97;6158797;28;109224;-57
2023/12/10 00:28:29;;;;;;;11.50;10.40;;;;;;;21.80;29.81;94968.75;6158175;28;109133;-57
2023/12/10 00:31:32;;;;;;;12.00;11.00;;;;;;;21.80;29.32;94967.97;6153808;28;110313;-59
2023/12/10 00:34:36;;;;;;;10.93;9.93;;;;;;;21.79;29.56;94956.53;6148590;28;109553;-57
2023/12/10 00:37:39;;;;;;;10.33;9.50;;;;;;;21.79;29.34;94969.06;6153370;28;110927;-57
2023/12/10 00:40:44;;;;;;;10.27;9.37;;;;;;;21.80;29.71;94970.63;6152935;28;109168;-58
2023/12/10 00:43:47;;;;;;;10.77;9.87;;;;;;;21.79;29.77;94969.84;6147911;28;109276;-57
2023/12/10 00:46:50;;;;;;;11.60;10.60;;;;;;;21.81;29.25;94958.88;6159827;28;110235;-58
2023/12/10 00:49:53;;;;;;;10.93;9.93;;;;;;;21.81;29.49;94972.19;6161666;28;110821;-58
2023/12/10 00:52:56;;;;;;;11.00;9.90;;;;;;;21.81;29.33;94958.88;6163551;28;109136;-59
2023/12/10 00:56:01;;;;;;;10.53;9.60;;;;;;;21.80;29.72;94958.09;6152814;28;109185;-57
2023/12/10 00:59:04;;;;;;;10.60;9.70;;;;;;;21.82;29.75;94965.81;6162753;28;109147;-57
2023/12/10 01:02:08;;;;;;;10.73;9.83;;;;;;;21.80;29.38;94955.44;6163560;28;110141;-57
2023/12/10 01:05:11;;;;;;;10.90;9.80;;;;;;;21.81;29.65;94958.88;6148078;28;110130;-57
2023/12/10 01:08:16;;;;;;;10.90;9.93;;;;;;;21.79;29.88;94951.19;6147947;28;109122;-58
2023/12/10 01:11:21;;;;;;;11.00;10.00;;;;;;;21.80;29.82;94952.78;6149175;28;109240;-57
2023/12/10 01:14:24;;;;;;;11.33;10.33;;;;;;;21.80;29.94;94944.00;6162821;28;109152;-57
2023/12/10 01:17:27;;;;;;;11.17;10.07;;;;;;;21.80;29.91;94949.31;6147234;28;110097;-57
2023/12/10 01:20:30;;;;;;;11.67;10.67;;;;;;;21.78;29.76;94938.19;6151587;28;109308;-57
2023/12/10 01:23:34;;;;;;;10.00;9.10;;;;;;;21.78;29.74;94938.19;6149334;28;110015;-57
2023/12/10 01:26:38;;;;;;;10.70;9.70;;;;;;;21.78;30.04;94938.19;6158592;28;109184;-57
2023/12/10 01:29:42;;;;;;;10.30;9.33;;;;;;;21.79;29.40;94926.44;6152983;28;109646;-57
2023/12/10 01:32:45;;;;;;;10.97;10.07;;;;;;;21.77;29.74;94926.75;6161569;28;109193;-57
2023/12/10 01:35:49;;;;;;;11.27;10.17;;;;;;;21.78;29.41;94932.84;6160862;28;109280;-62
2023/12/10 01:38:53;;;;;;;11.17;10.17;;;;;;;21.78;29.43;94922.19;6157328;28;110401;-57
2023/12/10 01:41:57;;;;;;;11.90;10.80;;;;;;;21.77;29.65;94916.09;6141410;28;111276;-58
2023/12/10 01:45:00;;;;;;;10.70;9.70;;;;;;;21.76;29.74;94911.06;6158895;28;109108;-57
2023/12/10 01:48:06;;;;;;;11.53;10.53;;;;;;;21.76;29.77;94906.53;6160616;28;109151;-58
2023/12/10 01:51:10;;;;;;;11.20;10.13;;;;;;;21.76;29.70;94900.41;6141690;28;109141;-63
2023/12/10 01:54:22;;;;;;;10.33;9.43;;;;;;;21.76;29.86;94917.19;6155847;28;109134;-57
2023/12/10 01:57:28;;;;;;;11.73;10.63;;;;;;;21.74;29.96;94919.38;6149700;28;109095;-57
2023/12/10 02:00:32;;;;;;;11.80;10.70;;;;;;;21.75;29.58;94926.28;6155497;28;108901;-57
2023/12/10 02:03:35;;;;;;;10.90;9.90;;;;;;;21.75;29.44;94906.84;6151580;28;109065;-57
2023/12/10 02:06:39;;;;;;;11.33;10.33;;;;;;;21.74;29.92;94915.94;6162657;28;109005;-57
2023/12/10 02:09:42;;;;;;;11.63;10.63;;;;;;;21.75;29.84;94928.16;6159163;28;110647;-57
2023/12/10 02:12:48;;;;;;;11.80;10.60;;;;;;;21.76;29.68;94930.50;6142137;28;109093;-57
2023/12/10 02:15:52;;;;;;;12.17;11.07;;;;;;;21.76;29.53;94924.41;6132414;28;109262;-57
2023/12/10 02:18:55;;;;;;;11.07;10.07;;;;;;;21.76;29.35;94916.41;6151113;28;109083;-58
2023/12/10 02:22:00;;;;;;;11.07;10.00;;;;;;;21.75;29.79;94920.16;6160049;28;110214;-57
2023/12/10 02:25:06;;;;;;;11.40;10.30;;;;;;;21.74;29.58;94914.03;6137876;28;109150;-57
2023/12/10 02:28:11;;;;;;;10.47;9.57;;;;;;;21.75;29.44;94904.19;6150210;28;108947;-57
2023/12/10 02:31:14;;;;;;;11.43;10.43;;;;;;;21.75;29.45;94909.50;6141299;28;109245;-57
2023/12/10 02:34:18;;;;;;;11.73;10.70;;;;;;;21.74;29.47;94910.59;6157256;28;109153;-57
2023/12/10 02:37:21;;;;;;;10.90;9.90;;;;;;;21.74;29.34;94905.28;6149870;28;111726;-57
2023/12/10 02:40:25;;;;;;;10.97;9.97;;;;;;;21.73;29.57;94901.81;6157797;28;110234;-57
2023/12/10 02:43:29;;;;;;;11.50;10.50;;;;;;;21.69;29.86;94905.41;6157361;28;109173;-59
2023/12/10 02:46:32;;;;;;;11.33;10.33;;;;;;;21.58;29.84;94899.56;6143339;28;109462;-59
2023/12/10 02:49:36;;;;;;;10.77;9.87;;;;;;;21.53;30.13;94897.03;6134361;28;113522;-59
2023/12/10 02:52:39;;;;;;;10.60;9.70;;;;;;;21.50;29.88;94898.41;6160024;28;109480;-61
2023/12/10 02:55:42;;;;;;;11.90;10.80;;;;;;;21.49;30.26;94896.84;6153672;28;109448;-59
2023/12/10 02:58:47;;;;;;;12.43;11.33;;;;;;;21.47;30.03;94904.34;6154948;28;110270;-60
2023/12/10 03:01:50;;;;;;;11.00;10.00;;;;;;;21.47;30.08;94901.69;6139660;28;109538;-59
2023/12/10 03:04:53;;;;;;;11.90;10.80;;;;;;;21.47;30.14;94903.56;6145753;28;109592;-59
2023/12/10 03:07:56;;;;;;;11.57;10.57;;;;;;;21.46;29.92;94900.09;6154497;28;109338;-60
2023/12/10 03:11:00;;;;;;;12.13;11.03;;;;;;;21.47;30.19;94899.00;6148900;28;109901;-60
2023/12/10 03:14:04;;;;;;;11.53;10.53;;;;;;;21.46;30.05;94891.34;6148905;28;109223;-59
2023/12/10 03:17:07;;;;;;;11.10;10.10;;;;;;;21.45;29.75;94889.75;6146882;28;109143;-60
2023/12/10 03:20:12;;;;;;;12.10;11.00;;;;;;;21.45;30.22;94887.09;6159343;28;109255;-60
2023/12/10 03:23:17;;;;;;;12.00;10.90;;;;;;;21.45;29.84;94879.91;6144740;28;109257;-59
2023/12/10 03:26:20;;;;;;;11.77;10.67;;;;;;;21.43;29.85;94876.75;6147135;28;110013;-59
2023/12/10 03:29:25;;;;;;;11.30;10.30;;;;;;;21.42;29.83;94883.19;6146171;28;109073;-60
2023/12/10 03:32:28;;;;;;;10.87;9.87;;;;;;;21.43;30.03;94884.75;6153085;28;110208;-60
2023/12/10 03:35:31;;;;;;;10.87;9.87;;;;;;;21.43;29.81;94889.28;6142861;28;110301;-60
2023/12/10 03:38:34;;;;;;;10.73;9.83;;;;;;;21.42;30.04;94885.84;6150351;28;109671;-59
2023/12/10 03:41:38;;;;;;;11.30;10.30;;;;;;;21.41;29.66;94880.81;6152566;28;112314;-59
2023/12/10 03:44:42;;;;;;;11.00;10.00;;;;;;;21.41;30.02;94894.91;6152958;28;110003;-59
2023/12/10 03:47:46;;;;;;;10.13;9.23;;;;;;;21.41;29.91;94884.28;6156616;28;110734;-60
2023/12/10 03:50:51;;;;;;;10.57;9.67;;;;;;;21.41;30.20;94891.47;6158703;28;110191;-59
2023/12/10 03:53:54;;;;;;;10.07;9.23;;;;;;;21.45;29.93;94887.09;6159966;28;109275;-60
2023/12/10 03:56:57;;;;;;;10.43;9.43;;;;;;;21.43;30.12;94889.28;6148815;28;109233;-59
2023/12/10 04:00:02;;;;;;;10.77;9.67;;;;;;;21.41;29.92;94891.47;6160084;28;111179;-59
2023/12/10 04:03:07;;;;;;;9.50;8.70;;;;;;;21.41;30.17;94881.59;6154162;28;109149;-59
2023/12/10 04:06:10;;;;;;;9.97;9.17;;;;;;;21.40;29.85;94873.94;6138435;28;109348;-60
2023/12/10 04:09:14;;;;;;;10.30;9.40;;;;;;;21.40;30.19;94876.59;6148315;28;109137;-59
2023/12/10 04:12:17;;;;;;;9.27;8.47;;;;;;;21.40;29.96;94876.59;6160509;28;109393;-60
2023/12/10 04:15:21;;;;;;;8.97;8.13;;;;;;;21.39;29.88;94873.16;6153692;28;109217;-60
2023/12/10 04:18:25;;;;;;;9.10;8.30;;;;;;;21.39;30.10;94881.13;6137248;28;109417;-59
2023/12/10 04:21:28;;;;;;;9.80;8.87;;;;;;;21.38;29.93;94882.22;6153021;28;109483;-61
2023/12/10 04:24:31;;;;;;;9.37;8.57;;;;;;;21.37;29.96;94878.00;6142021;28;109905;-59
2023/12/10 04:27:34;;;;;;;9.40;8.60;;;;;;;21.38;30.04;94895.53;6159883;28;108909;-59
2023/12/10 04:30:39;;;;;;;8.43;7.73;;;;;;;21.36;30.01;94892.41;6147636;28;109230;-60
2023/12/10 04:33:44;;;;;;;9.53;8.53;;;;;;;21.37;30.08;94893.19;6157752;28;109379;-60
2023/12/10 04:36:48;;;;;;;9.60;8.80;;;;;;;21.37;29.56;94898.50;6150056;28;108950;-59
2023/12/10 04:39:51;;;;;;;8.53;7.90;;;;;;;21.36;30.00;94889.72;6157782;28;108976;-60
2023/12/10 04:42:54;;;;;;;8.57;7.83;;;;;;;21.36;29.60;94903.03;6146416;28;109211;-60
2023/12/10 04:45:59;;;;;;;7.70;7.10;;;;;;;21.36;29.87;94888.94;6155749;28;109413;-60
2023/12/10 04:49:02;;;;;;;7.40;6.80;;;;;;;21.36;29.90;94899.59;6140279;28;109129;-60
2023/12/10 04:52:07;;;;;;;7.80;7.10;;;;;;;21.36;30.07;94897.72;6137455;28;109297;-60
2023/12/10 04:55:10;;;;;;;8.33;7.50;;;;;;;21.37;29.90;94893.97;6136011;28;109068;-60
2023/12/10 04:58:13;;;;;;;7.13;6.53;;;;;;;21.36;29.81;94897.72;6157272;28;109169;-60
2023/12/10 05:01:18;;;;;;;8.73;7.93;;;;;;;21.34;29.82;94899.91;6158200;28;109554;-60
2023/12/10 05:04:21;;;;;;;8.40;7.60;;;;;;;21.35;29.90;94901.47;6149557;28;108845;-62
2023/12/10 05:07:24;;;;;;;7.73;7.10;;;;;;;21.36;29.68;94903.03;6156187;28;109586;-59
2023/12/10 05:10:28;;;;;;;8.27;7.57;;;;;;;21.37;30.00;94904.59;6157681;28;109179;-62
2023/12/10 05:13:35;;;;;;;7.73;7.13;;;;;;;21.37;30.11;94904.59;6145430;28;109312;-59
2023/12/10 05:16:39;;;;;;;8.70;7.80;;;;;;;21.37;29.79;94896.63;6144439;28;109045;-59
2023/12/10 05:19:43;;;;;;;7.90;7.20;;;;;;;21.37;29.87;94890.53;6154600;28;109089;-59
2023/12/10 05:22:47;;;;;;;8.10;7.33;;;;;;;21.35;29.62;94890.81;6150928;28;111223;-59
2023/12/10 05:25:50;;;;;;;7.53;6.93;;;;;;;21.36;30.07;94900.38;6157818;28;109007;-59
2023/12/10 05:28:53;;;;;;;7.83;7.13;;;;;;;21.36;29.65;94892.41;6139023;28;109432;-61
2023/12/10 05:31:58;;;;;;;7.50;6.90;;;;;;;21.34;29.67;94904.41;6149024;28;110617;-60
2023/12/10 05:35:01;;;;;;;7.80;7.07;;;;;;;21.35;29.71;94904.13;6159453;28;110277;-59
2023/12/10 05:38:07;;;;;;;8.20;7.43;;;;;;;21.35;29.57;94906.00;6147807;28;109445;-60
2023/12/10 05:41:11;;;;;;;8.10;7.30;;;;;;;21.35;29.70;94906.78;6150865;28;109200;-59
2023/12/10 05:44:14;;;;;;;7.97;7.27;;;;;;;21.35;29.90;94893.50;6148522;28;109417;-60
2023/12/10 05:47:18;;;;;;;8.60;7.80;;;;;;;21.34;29.67;94889.25;6152192;28;108908;-60
2023/12/10 05:50:22;;;;;;;8.77;7.87;;;;;;;21.33;29.53;94885.00;6151236;28;111309;-61
2023/12/10 05:53:25;;;;;;;11.50;10.40;;;;;;;21.34;30.09;94881.28;6157682;28;109277;-60
2023/12/10 05:56:28;;;;;;;14.13;12.83;;;;;;;21.36;29.74;94884.41;6161367;28;109171;-60
2023/12/10 05:59:31;;;;;;;11.70;10.60;;;;;;;21.55;29.36;94878.09;6162345;28;109240;-56
2023/12/10 06:02:35;;;;;;;11.93;10.93;;;;;;;21.69;29.14;94892.88;6147420;28;110022;-56
2023/12/10 06:05:39;;;;;;;12.77;11.57;;;;;;;21.76;29.07;94881.78;6155671;28;110249;-56
2023/12/10 06:08:42;;;;;;;12.07;10.90;;;;;;;21.82;28.70;94869.91;6155470;28;109290;-56
2023/12/10 06:11:45;;;;;;;11.00;10.00;;;;;;;21.86;28.97;94881.56;6156141;28;109642;-56
2023/12/10 06:14:48;;;;;;;11.80;10.80;;;;;;;21.88;28.49;94889.22;6151301;28;110737;-56
2023/12/10 06:17:53;;;;;;;12.07;10.90;;;;;;;21.88;28.66;94899.88;6161117;28;108767;-56
2023/12/10 06:20:56;;;;;;;11.70;10.60;;;;;;;21.89;28.75;94899.56;6161357;28;109593;-56
2023/12/10 06:23:59;;;;;;;12.00;10.90;;;;;;;21.90;28.71;94885.16;6151741;28;109594;-56
2023/12/10 06:27:03;;;;;;;11.83;10.73;;;;;;;21.90;28.85;94890.50;6160478;28;110235;-56
2023/12/10 06:30:08;;;;;;;11.20;10.20;;;;;;;21.88;28.48;94886.56;6162784;28;110523;-56
2023/12/10 06:33:13;;;;;;;11.00;9.90;;;;;;;21.93;28.90;94884.53;6156585;28;109309;-56
2023/12/10 06:36:16;;;;;;;11.00;10.00;;;;;;;21.93;28.84;94881.88;6134212;28;109223;-56
2023/12/10 06:39:19;;;;;;;11.13;10.07;;;;;;;21.95;28.45;94906.31;6160402;28;109148;-56
2023/12/10 06:42:22;;;;;;;10.57;9.57;;;;;;;21.96;29.08;94897.25;6152275;28;109261;-56
2023/12/10 06:45:26;;;;;;;10.90;9.97;;;;;;;21.98;28.96;94911.03;6159115;28;109726;-56
2023/12/10 06:48:30;;;;;;;9.90;9.00;;;;;;;21.98;28.47;94910.25;6134032;28;110694;-56
2023/12/10 06:51:33;;;;;;;13.37;12.20;;;;;;;21.93;29.01;94913.06;6143474;28;109031;-61
2023/12/10 06:54:37;;;;;;;13.73;12.53;;;;;;;21.81;29.60;94921.59;6153057;28;109263;-60
2023/12/10 06:57:40;;;;;;;23.17;21.27;;;;;;;21.71;29.82;94930.66;6145833;28;109090;-60
2023/12/10 07:00:43;;;;;;;24.07;22.20;;;;;;;21.64;30.26;94930.28;6141496;28;109143;-60
2023/12/10 07:03:48;;;;;;;21.10;18.87;;;;;;;21.45;29.39;94937.69;6142252;28;110023;-60
2023/12/10 07:06:51;;;;;;;19.77;17.77;;;;;;;21.17;29.29;94932.50;6157851;28;109075;-60
2023/12/10 07:09:55;;;;;;;18.77;16.73;;;;;;;21.11;29.00;94948.88;6143278;28;110180;-60
2023/12/10 07:12:59;;;;;;;21.13;15.97;;;;;;;21.20;29.51;94950.53;6155026;28;109070;-60
2023/12/10 07:16:02;;;;;;;18.40;16.50;;;;;;;21.28;29.30;94951.66;6157734;28;109209;-60
2023/12/10 07:19:07;;;;;;;16.87;15.47;;;;;;;21.33;28.95;94948.88;6149152;28;109218;-60
2023/12/10 07:22:11;;;;;;;16.83;15.27;;;;;;;21.47;29.12;94938.94;6138040;28;111080;-59
2023/12/10 07:25:14;;;;;;;15.47;14.17;;;;;;;21.57;28.82;94943.25;6157675;28;109047;-59
2023/12/10 07:28:18;;;;;;;15.20;13.87;;;;;;;21.44;29.18;94933.44;6143673;28;109469;-59
2023/12/10 07:31:21;;;;;;;14.57;13.27;;;;;;;21.44;29.21;94938.78;6148108;28;109464;-59
2023/12/10 07:34:25;;;;;;;15.73;14.23;;;;;;;21.39;29.18;94937.03;6140177;28;109475;-59
2023/12/10 07:37:29;;;;;;;15.00;13.17;;;;;;;21.42;29.24;94940.97;6152466;28;109300;-59
2023/12/10 07:40:32;;;;;;;17.13;15.33;;;;;;;21.43;29.53;94937.22;6161327;28;109711;-59
2023/12/10 07:43:35;;;;;;;15.70;13.93;;;;;;;21.52;29.04;94944.16;6149568;28;109733;-60
2023/12/10 07:46:38;;;;;;;17.00;15.30;;;;;;;21.56;29.32;94948.88;6160869;28;109330;-59
2023/12/10 07:49:43;;;;;;;17.93;14.80;;;;;;;21.59;28.78;94932.28;6161361;28;110204;-59
2023/12/10 07:52:46;;;;;;;21.30;15.47;;;;;;;21.59;28.99;94941.06;6152307;28;109287;-60
2023/12/10 07:55:50;;;;;;;24.43;17.80;;;;;;;21.59;29.70;94942.94;6144070;28;109614;-60
2023/12/10 07:58:53;;;;;;;20.97;16.17;;;;;;;21.59;29.71;94927.75;6150160;28;110389;-60
2023/12/10 08:01:56;;;;;;;20.27;16.60;;;;;;;21.62;29.26;94943.13;6157480;28;109707;-60
2023/12/10 08:05:01;;;;;;;21.63;19.50;;;;;;;21.64;29.64;94948.91;6136917;28;109014;-60
2023/12/10 08:08:05;;;;;;;25.43;16.83;;;;;;;21.62;29.90;94947.66;6137494;28;109951;-60
2023/12/10 08:11:08;;;;;;;18.20;15.43;;;;;;;21.62;29.96;94947.66;6160197;28;109740;-59
2023/12/10 08:14:11;;;;;;;18.63;14.83;;;;;;;21.62;29.46;94952.97;6142053;28;109263;-58
2023/12/10 08:17:15;;;;;;;25.07;15.20;;;;;;;21.62;29.61;94942.31;6132551;28;109346;-61
2023/12/10 08:20:20;;;;;;;16.53;14.70;;;;;;;21.64;29.88;94948.13;6131570;28;108942;-60
2023/12/10 08:23:23;;;;;;;16.67;15.03;;;;;;;21.70;29.38;94947.72;6137589;28;111396;-60
2023/12/10 08:26:26;;;;;;;16.50;14.23;;;;;;;21.73;30.04;94941.78;6136150;28;110389;-60
2023/12/10 08:29:30;;;;;;;18.17;14.00;;;;;;;21.75;29.69;94946.78;6126140;28;109429;-60
2023/12/10 08:32:33;;;;;;;16.10;12.27;;;;;;;21.76;29.92;94949.16;6138003;28;109195;-61
2023/12/10 08:35:38;;;;;;;14.87;13.37;;;;;;;21.51;30.35;94939.16;6136464;28;108902;-60
2023/12/10 08:38:41;;;;;;;13.60;12.20;;;;;;;21.81;29.69;94926.91;6149645;28;108964;-60
2023/12/10 08:41:45;;;;;;;21.43;12.40;;;;;;;22.06;29.77;94926.28;6149797;28;109595;-59
2023/12/10 08:44:48;;;;;;;13.07;11.70;;;;;;;22.00;29.98;94916.84;6150728;28;109138;-60
2023/12/10 08:47:51;;;;;;;13.50;11.83;;;;;;;21.94;29.93;94919.97;6154218;28;109305;-60
2023/12/10 08:50:56;;;;;;;14.50;11.40;;;;;;;21.90;30.42;94903.81;6140881;28;109228;-60
2023/12/10 08:54:00;;;;;;;12.73;11.43;;;;;;;21.88;30.00;94905.22;6149124;28;109225;-59
2023/12/10 08:57:03;;;;;;;13.50;11.20;;;;;;;21.84;30.17;94898.91;6157675;28;109110;-60
2023/12/10 09:00:08;;;;;;;11.50;10.40;;;;;;;21.85;30.15;94887.97;6158837;28;109583;-60
2023/12/10 09:03:11;;;;;;;14.13;11.23;;;;;;;21.85;30.61;94890.63;6146013;28;109127;-61
2023/12/10 09:06:16;;;;;;;11.80;10.30;;;;;;;21.90;30.74;94892.38;6151784;28;109018;-60
2023/12/10 09:09:19;;;;;;;13.40;10.83;;;;;;;21.90;30.55;94895.81;6155865;28;109259;-60
2023/12/10 09:12:22;;;;;;;13.17;10.47;;;;;;;21.89;30.82;94894.25;6161027;28;109434;-60
2023/12/10 09:15:26;;;;;;;14.60;10.57;;;;;;;21.91;31.11;94888.59;6152560;28;109206;-60
2023/12/10 09:18:29;;;;;;;11.77;10.07;;;;;;;21.96;31.11;94886.59;6153888;28;109110;-60
2023/12/10 09:21:34;;;;;;;12.10;10.33;;;;;;;22.03;31.02;94884.28;6150825;28;111710;-60
2023/12/10 09:24:39;;;;;;;11.50;10.30;;;;;;;22.24;31.34;94879.16;6150533;28;109436;-56
2023/12/10 09:27:43;;;;;;;17.70;9.83;;;;;;;22.56;30.99;94879.84;6152022;28;110104;-59
2023/12/10 09:30:46;;;;;;;15.00;9.43;;;;;;;22.44;31.52;94884.97;6161235;28;109616;-60
2023/12/10 09:33:49;;;;;;;17.33;10.17;;;;;;;22.39;31.40;94876.03;6161119;28;110463;-59
2023/12/10 09:36:54;;;;;;;9.90;8.90;;;;;;;22.44;31.46;94880.44;6137831;28;109651;-59
2023/12/10 09:39:57;;;;;;;13.70;9.27;;;;;;;22.40;32.19;94874.16;6151246;28;108940;-60
2023/12/10 09:43:01;;;;;;;13.40;9.10;;;;;;;22.38;32.19;94871.03;6161746;28;109060;-60
2023/12/10 09:46:05;;;;;;;12.37;9.10;;;;;;;22.40;31.84;94863.50;6158967;28;109294;-60
2023/12/10 09:49:08;;;;;;;16.37;9.70;;;;;;;22.45;32.06;94866.00;6151412;28;109257;-59
2023/12/10 09:52:13;;;;;;;11.13;8.57;;;;;;;22.50;31.76;94863.19;6163241;28;110024;-60
2023/12/10 09:55:17;;;;;;;13.60;8.97;;;;;;;22.54;31.86;94850.03;6144593;28;109112;-59
2023/12/10 09:58:20;;;;;;;11.60;8.83;;;;;;;22.51;32.07;94846.09;6155340;28;110088;-58
2023/12/10 10:01:23;;;;;;;12.67;9.40;;;;;;;22.51;32.03;94854.09;6148022;28;109350;-60
2023/12/10 10:04:26;;;;;;;11.00;8.50;;;;;;;22.52;32.42;94852.22;6147969;28;109034;-60
2023/12/10 10:07:31;;;;;;;12.80;9.20;;;;;;;22.48;32.29;94844.03;6160770;28;110331;-60
2023/12/10 10:10:34;;;;;;;11.27;9.80;;;;;;;22.57;32.37;94842.22;6161999;28;109627;-60
2023/12/10 10:13:38;;;;;;;9.10;8.30;;;;;;;22.56;33.22;94839.81;6145796;28;110113;-61
2023/12/10 10:16:47;;;;;;;9.97;8.43;;;;;;;22.64;32.61;94836.41;6155146;28;111001;-59
2023/12/10 10:19:50;;;;;;;9.17;8.13;;;;;;;22.68;32.64;94846.16;6155682;28;111053;-59
2023/12/10 10:22:55;;;;;;;9.63;8.33;;;;;;;22.69;33.16;94838.94;6147510;28;108942;-61
2023/12/10 10:25:59;;;;;;;9.60;8.50;;;;;;;22.72;33.38;94840.19;6157298;28;109555;-60
2023/12/10 10:29:03;;;;;;;9.30;8.40;;;;;;;22.85;33.18;94845.34;6151508;28;109500;-60
2023/12/10 10:32:07;;;;;;;9.57;8.40;;;;;;;22.88;33.83;94851.94;6143563;28;108861;-60
2023/12/10 10:35:11;;;;;;;12.23;10.70;;;;;;;22.80;33.78;94850.84;6147766;28;109177;-60
2023/12/10 10:38:18;;;;;;;14.93;11.90;;;;;;;22.75;34.09;94850.22;6158329;28;109326;-60
2023/12/10 10:41:22;;;;;;;20.00;14.70;;;;;;;22.74;34.29;94828.09;6159548;28;109167;-60
2023/12/10 10:44:25;;;;;;;29.87;20.17;;;;;;;22.78;34.20;94833.56;6148786;28;109559;-60
2023/12/10 10:47:29;;;;;;;46.03;25.47;;;;;;;22.80;33.80;94826.03;6141928;28;110335;-60
2023/12/10 10:50:34;;;;;;;65.20;29.97;;;;;;;22.82;34.19;94831.84;6155669;28;108884;-60
2023/12/10 10:53:40;;;;;;;87.80;38.67;;;;;;;22.81;34.49;94825.72;6158078;28;110175;-60
2023/12/10 10:56:45;;;;;;;102.00;43.90;;;;;;;22.81;34.58;94817.72;6155270;28;109712;-60
2023/12/10 10:59:49;;;;;;;101.43;43.83;;;;;;;22.82;34.27;94810.50;6153331;28;108922;-60
2023/12/10 11:02:55;;;;;;;112.63;46.70;;;;;;;22.84;34.44;94814.41;6156303;28;108952;-59
2023/12/10 11:06:03;;;;;;;106.00;45.70;;;;;;;22.84;34.67;94806.41;6139821;28;110473;-60
2023/12/10 11:09:10;;;;;;;113.87;48.83;;;;;;;22.81;34.85;94803.59;6145667;28;109303;-60
2023/12/10 11:12:44;;;;;;;124.83;50.47;;;;;;;22.77;34.81;94795.44;6154618;28;109354;-60
2023/12/10 11:15:57;;;;;;;118.90;50.40;;;;;;;22.70;35.53;94787.94;6154264;28;109955;-60
2023/12/10 11:19:01;;;;;;;114.90;51.07;;;;;;;22.65;35.86;94790.75;6154756;28;109337;-61
2023/12/10 11:22:04;;;;;;;120.03;51.70;;;;;;;22.63;35.44;94792.94;6137088;28;109248;-60
2023/12/10 11:25:12;;;;;;;124.37;51.57;;;;;;;22.58;36.10;94790.44;6154143;28;109280;-59
2023/12/10 11:28:17;;;;;;;120.87;52.30;;;;;;;22.55;35.63;94796.38;6161351;28;110473;-60
2023/12/10 11:31:21;;;;;;;125.67;50.80;;;;;;;22.52;35.97;94797.00;6147133;28;109169;-60
2023/12/10 11:34:25;;;;;;;111.03;47.67;;;;;;;22.48;35.77;94780.06;6142192;28;109301;-60
2023/12/10 11:37:29;;;;;;;109.60;46.67;;;;;;;22.48;36.03;94771.25;6155166;28;109705;-60
2023/12/10 11:40:34;;;;;;;106.77;45.23;;;;;;;22.55;35.58;94764.38;6148430;28;109189;-59
2023/12/10 11:43:37;;;;;;;98.30;43.80;;;;;;;22.67;35.75;94769.88;6148190;28;109492;-56
2023/12/10 11:46:41;;;;;;;102.00;42.20;;;;;;;22.92;35.51;94768.28;6160929;28;109316;-56
2023/12/10 11:49:55;;;;;;;94.93;41.10;;;;;;;22.89;35.66;94762.78;6151619;28;109251;-57
2023/12/10 11:52:59;;;;;;;98.97;41.90;;;;;;;22.91;35.41;94755.25;6155469;28;109188;-56
2023/12/10 11:56:05;;;;;;;94.43;41.07;;;;;;;22.98;35.89;94745.63;6144403;28;109310;-56
2023/12/10 11:59:09;;;;;;;88.80;39.20;;;;;;;23.04;35.90;94738.25;6161378;28;109717;-56
2023/12/10 12:02:15;;;;;;;88.10;40.73;;;;;;;23.05;35.62;94729.16;6144425;28;109161;-56
2023/12/10 12:05:18;;;;;;;81.33;38.90;;;;;;;23.08;35.86;94719.72;6142465;28;110839;-56
2023/12/10 12:08:26;;;;;;;79.90;37.17;;;;;;;23.09;35.30;94722.06;6146917;28;109220;-56
2023/12/10 12:11:30;;;;;;;73.00;35.30;;;;;;;23.10;35.74;94723.63;6152861;28;109339;-56
2023/12/10 12:14:34;;;;;;;78.03;35.60;;;;;;;23.07;35.46;94713.59;6159767;28;110534;-56
2023/12/10 12:17:37;;;;;;;84.17;37.17;;;;;;;23.10;35.39;94725.53;6141013;28;109396;-56
2023/12/10 12:20:41;;;;;;;66.43;34.07;;;;;;;23.09;35.77;94727.41;6151191;28;108981;-61
2023/12/10 12:23:44;;;;;;;75.77;36.83;;;;;;;23.06;35.78;94720.03;6158077;28;109292;-56
2023/12/10 12:26:50;;;;;;;68.10;32.80;;;;;;;23.03;35.69;94719.91;6155674;28;109799;-57
2023/12/10 12:29:54;;;;;;;74.23;33.70;;;;;;;23.03;35.53;94718.03;6136286;28;110603;-56
2023/12/10 12:32:57;;;;;;;69.20;33.47;;;;;;;23.04;35.08;94713.47;6159383;28;109579;-56
2023/12/10 12:36:01;;;;;;;64.70;32.70;;;;;;;23.00;34.97;94722.09;6160388;28;111800;-56
2023/12/10 12:39:05;;;;;;;69.33;31.60;;;;;;;22.97;34.98;94724.63;6148041;28;111599;-56
2023/12/10 12:42:09;;;;;;;62.93;30.20;;;;;;;22.89;35.08;94717.44;6151713;28;109322;-56
2023/12/10 12:45:12;;;;;;;59.40;29.00;;;;;;;22.88;35.35;94718.53;6151139;28;109301;-57
2023/12/10 12:48:16;;;;;;;55.60;27.97;;;;;;;22.87;35.26;94717.75;6159679;28;109552;-60
2023/12/10 12:51:19;;;;;;;55.73;27.20;;;;;;;22.66;35.71;94720.28;6150859;28;109076;-60
2023/12/10 12:54:23;;;;;;;55.83;27.10;;;;;;;22.56;35.81;94723.28;6164603;28;110109;-58
2023/12/10 12:57:27;;;;;;;44.90;22.43;;;;;;;22.31;35.47;94716.06;6161542;28;108955;-59
2023/12/10 13:00:31;;;;;;;33.50;17.63;;;;;;;21.94;33.68;94728.91;6150630;28;109317;-60
2023/12/10 13:03:35;;;;;;;17.70;13.90;;;;;;;21.48;32.16;94721.44;6142637;28;109177;-61
2023/12/10 13:06:38;;;;;;;14.93;12.50;;;;;;;21.13;31.67;94721.31;6162620;28;109331;-60
2023/12/10 13:09:41;;;;;;;21.17;12.80;;;;;;;21.31;32.72;94716.06;6156534;28;109654;-60
2023/12/10 13:12:46;;;;;;;17.50;12.60;;;;;;;21.76;31.94;94716.66;6152145;28;109205;-60
2023/12/10 13:15:49;;;;;;;20.37;12.10;;;;;;;21.91;32.13;94716.22;6144317;28;109241;-60
2023/12/10 13:18:52;;;;;;;21.40;13.50;;;;;;;21.95;32.25;94719.84;6164154;28;109490;-61
2023/12/10 13:21:56;;;;;;;19.83;12.43;;;;;;;22.02;32.41;94724.72;6164064;28;110850;-60
2023/12/10 13:25:01;;;;;;;18.70;12.70;;;;;;;22.02;32.41;94724.72;6153759;28;109439;-61
2023/12/10 13:28:06;;;;;;;18.50;11.43;;;;;;;22.03;32.38;94718.28;6163509;28;109452;-60
2023/12/10 13:31:10;;;;;;;20.80;12.50;;;;;;;22.03;32.79;94711.06;6163149;28;109967;-60
2023/12/10 13:34:13;;;;;;;23.00;12.20;;;;;;;22.02;32.42;94714.06;6158043;28;109595;-60
2023/12/10 13:37:16;;;;;;;18.47;12.10;;;;;;;22.02;32.67;94709.50;6128832;28;109848;-62
2023/12/10 13:40:20;;;;;;;20.03;11.97;;;;;;;22.02;32.92;94720.16;6139417;28;109381;-61
2023/12/10 13:43:25;;;;;;;22.60;12.97;;;;;;;22.04;33.09;94723.31;6140311;28;113187;-60
2023/12/10 13:46:28;;;;;;;21.60;13.20;;;;;;;22.02;32.44;94717.50;6146073;28;109242;-61
2023/12/10 13:49:31;;;;;;;21.70;13.80;;;;;;;22.03;32.51;94707.63;6150123;28;109216;-61
2023/12/10 13:52:34;;;;;;;20.07;11.70;;;;;;;22.01;33.10;94717.78;6139111;28;109147;-61
2023/12/10 13:55:38;;;;;;;20.23;11.60;;;;;;;21.99;33.04;94718.09;6138998;28;109599;-61
2023/12/10 13:58:43;;;;;;;18.27;12.00;;;;;;;21.96;32.69;94717.94;6134042;28;109392;-62